createdAt,value
2017-05-30T00:01:50.488Z,75.70
2017-05-30T00:06:48.103Z,75.20
2017-05-30T00:11:46.111Z,75.10
2017-05-30T00:14:14.427Z,75.50
2017-05-30T00:16:42.744Z,76.00
2017-05-30T00:19:11.119Z,75.60
2017-05-30T00:21:39.492Z,75.90
2017-05-30T00:24:08.543Z,76.30
2017-05-30T00:26:36.899Z,76.30
2017-05-30T00:29:04.830Z,76.20
2017-05-30T00:31:33.135Z,75.80
2017-05-30T00:34:01.900Z,75.00
2017-05-30T00:36:29.861Z,74.40
2017-05-30T00:38:57.803Z,74.50
2017-05-30T00:41:26.170Z,76.90
2017-05-30T00:43:54.475Z,78.30
2017-05-30T00:46:22.783Z,77.90
2017-05-30T00:48:51.499Z,78.40
2017-05-30T00:51:19.816Z,79.90
2017-05-30T00:53:47.743Z,79.30
2017-05-30T00:56:16.109Z,78.20
2017-05-30T00:58:44.081Z,77.70
2017-05-30T01:01:12.043Z,78.10
2017-05-30T01:03:40.409Z,78.10
2017-05-30T01:06:08.351Z,77.50
2017-05-30T01:08:36.654Z,78.00
2017-05-30T01:11:05.015Z,77.20
2017-05-30T01:13:33.328Z,77.30
2017-05-30T01:16:01.291Z,76.80
2017-05-30T01:18:29.680Z,76.20
2017-05-30T01:20:57.986Z,76.20
2017-05-30T01:25:55.266Z,75.80
2017-05-30T01:28:23.211Z,75.50
2017-05-30T01:30:51.511Z,76.60
2017-05-30T01:33:19.875Z,76.00
2017-05-30T01:35:47.804Z,76.10
2017-05-30T01:38:16.132Z,76.40
2017-05-30T01:40:44.545Z,77.50
2017-05-30T01:43:12.879Z,77.70
2017-05-30T01:48:10.555Z,76.80
2017-05-30T01:50:38.503Z,77.40
2017-05-30T01:53:06.815Z,77.10
2017-05-30T01:55:35.175Z,77.30
2017-05-30T01:58:03.479Z,77.30
2017-05-30T02:00:31.426Z,77.00
2017-05-30T02:02:59.812Z,77.70
2017-05-30T02:05:28.127Z,77.50
2017-05-30T02:07:56.434Z,78.00
2017-05-30T02:10:25.164Z,77.90
2017-05-30T02:12:53.475Z,78.10
2017-05-30T02:15:21.414Z,78.30
2017-05-30T02:17:49.771Z,78.40
2017-05-30T02:20:17.699Z,77.90
2017-05-30T02:22:45.641Z,78.10
2017-05-30T02:25:14.034Z,78.20
2017-05-30T02:27:42.021Z,77.30
2017-05-30T02:30:10.370Z,77.80
2017-05-30T02:32:38.730Z,77.40
2017-05-30T02:40:05.248Z,77.70
2017-05-30T02:47:32.144Z,77.50
2017-05-30T02:50:00.100Z,77.60
2017-05-30T02:52:28.418Z,77.00
2017-05-30T02:54:56.778Z,78.00
2017-05-30T02:57:25.459Z,77.30
2017-05-30T02:59:53.396Z,77.50
2017-05-30T03:02:21.404Z,77.70
2017-05-30T03:04:54.163Z,77.10
2017-05-30T03:07:22.748Z,77.90
2017-05-30T03:09:51.047Z,78.10
2017-05-30T03:14:48.673Z,78.00
2017-05-30T03:17:16.642Z,78.00
2017-05-30T03:19:44.985Z,77.90
2017-05-30T03:22:13.367Z,78.00
2017-05-30T03:24:41.324Z,78.30
2017-05-30T03:27:09.640Z,78.90
2017-05-30T03:29:38.739Z,78.50
2017-05-30T03:32:07.047Z,78.70
2017-05-30T03:34:34.986Z,78.70
2017-05-30T03:37:03.364Z,78.70
2017-05-30T03:39:31.343Z,78.30
2017-05-30T03:42:01.282Z,78.40
2017-05-30T03:44:29.352Z,77.60
2017-05-30T03:46:57.737Z,78.20
2017-05-30T03:49:25.804Z,77.80
2017-05-30T03:51:53.798Z,77.80
2017-05-30T03:54:22.100Z,77.90
2017-05-30T03:56:50.466Z,77.70
2017-05-30T03:59:18.607Z,78.10
2017-05-30T04:01:46.921Z,78.10
2017-05-30T04:04:15.244Z,77.70
2017-05-30T04:06:42.870Z,77.90
2017-05-30T04:09:10.424Z,77.90
2017-05-30T04:11:38.728Z,78.00
2017-05-30T04:14:06.706Z,78.50
2017-05-30T04:16:35.011Z,78.30
2017-05-30T04:19:02.938Z,77.60
2017-05-30T04:21:31.299Z,78.50
2017-05-30T04:23:59.263Z,76.70
2017-05-30T04:26:27.208Z,76.50
2017-05-30T04:28:55.555Z,77.70
2017-05-30T04:31:23.494Z,76.60
2017-05-30T04:33:51.805Z,76.50
2017-05-30T04:36:19.794Z,76.60
2017-05-30T04:38:48.466Z,76.70
2017-05-30T04:41:16.794Z,77.30
2017-05-30T04:43:45.164Z,75.70
2017-05-30T04:46:13.117Z,76.20
2017-05-30T04:48:41.440Z,76.80
2017-05-30T04:51:09.799Z,78.20
2017-05-30T04:53:37.741Z,76.50
2017-05-30T04:56:06.790Z,76.80
2017-05-30T04:58:34.775Z,77.60
2017-05-30T05:01:02.712Z,77.40
2017-05-30T05:03:31.839Z,77.50
2017-05-30T05:06:00.239Z,77.10
2017-05-30T05:10:57.451Z,76.80
2017-05-30T05:13:25.439Z,77.00
2017-05-30T05:15:53.744Z,76.20
2017-05-30T05:18:22.046Z,76.40
2017-05-30T05:20:50.406Z,76.70
2017-05-30T05:23:18.339Z,77.00
2017-05-30T05:25:46.659Z,77.30
2017-05-30T05:28:15.019Z,77.20
2017-05-30T05:30:43.358Z,77.00
2017-05-30T05:33:11.310Z,77.60
2017-05-30T05:35:39.678Z,77.70
2017-05-30T05:38:08.751Z,76.30
2017-05-30T05:40:37.424Z,76.80
2017-05-30T05:45:35.040Z,76.70
2017-05-30T05:48:03.001Z,76.60
2017-05-30T05:50:31.748Z,77.10
2017-05-30T05:53:00.081Z,77.50
2017-05-30T05:57:57.725Z,75.60
2017-05-30T06:00:26.403Z,76.20
2017-05-30T06:02:54.715Z,76.60
2017-05-30T06:05:22.695Z,77.30
2017-05-30T06:07:50.667Z,76.90
2017-05-30T06:10:18.968Z,76.30
2017-05-30T06:20:14.491Z,75.90
2017-05-30T06:27:40.666Z,74.90
2017-05-30T06:30:08.984Z,74.60
2017-05-30T06:32:37.295Z,74.50
2017-05-30T06:35:05.651Z,73.70
2017-05-30T06:37:33.959Z,71.90
2017-05-30T06:40:02.267Z,72.50
2017-05-30T06:42:30.636Z,73.10
2017-05-30T06:47:28.207Z,67.40
2017-05-30T06:49:56.559Z,70.50
2017-05-30T06:52:24.863Z,69.50
2017-05-30T06:54:53.167Z,66.50
2017-05-30T06:57:21.522Z,66.30
2017-05-30T06:59:49.454Z,63.80
2017-05-30T07:02:18.495Z,64.00
2017-05-30T07:04:46.500Z,62.30
2017-05-30T07:07:14.448Z,60.70
2017-05-30T07:09:42.767Z,60.20
2017-05-30T07:12:10.753Z,59.30
2017-05-30T07:14:38.702Z,58.50
2017-05-30T07:17:07.025Z,58.70
2017-05-30T07:19:35.384Z,59.10
2017-05-30T07:22:03.695Z,59.40
2017-05-30T07:24:31.641Z,58.50
2017-05-30T07:26:59.999Z,58.80
2017-05-30T07:29:28.319Z,60.10
2017-05-30T07:31:56.623Z,59.50
2017-05-30T07:34:24.604Z,59.00
2017-05-30T07:36:52.914Z,57.50
2017-05-30T07:39:21.223Z,57.30
2017-05-30T07:41:50.319Z,56.90
2017-05-30T07:44:18.260Z,56.50
2017-05-30T07:46:46.588Z,58.50
2017-05-30T07:49:14.967Z,58.90
2017-05-30T07:51:42.932Z,58.00
2017-05-30T07:54:11.283Z,58.90
2017-05-30T07:59:08.903Z,59.80
2017-05-30T08:01:37.212Z,58.90
2017-05-30T08:04:05.573Z,56.50
2017-05-30T08:06:33.878Z,57.90
2017-05-30T08:09:01.828Z,56.50
2017-05-30T08:11:30.242Z,58.30
2017-05-30T08:13:58.562Z,58.40
2017-05-30T08:16:26.500Z,58.10
2017-05-30T08:21:23.743Z,59.20
2017-05-30T08:23:52.055Z,59.20
2017-05-30T08:26:20.044Z,57.90
2017-05-30T08:28:48.355Z,58.70
2017-05-30T08:31:16.303Z,57.80
2017-05-30T08:33:44.676Z,59.00
2017-05-30T08:36:12.651Z,58.80
2017-05-30T08:38:40.592Z,58.70
2017-05-30T08:41:08.955Z,58.50
2017-05-30T08:43:37.269Z,57.70
2017-05-30T08:46:05.581Z,57.80
2017-05-30T08:48:33.571Z,57.30
2017-05-30T08:51:01.891Z,57.20
2017-05-30T08:53:30.219Z,58.20
2017-05-30T08:55:58.202Z,56.70
2017-05-30T08:58:26.506Z,57.60
2017-05-30T09:00:54.819Z,58.60
2017-05-30T09:03:23.215Z,57.20
2017-05-30T09:05:51.895Z,57.00
2017-05-30T09:08:20.208Z,57.80
2017-05-30T09:10:48.200Z,57.10
2017-05-30T09:13:16.146Z,59.00
2017-05-30T09:15:44.471Z,59.10
2017-05-30T09:18:12.473Z,57.30
2017-05-30T09:20:40.423Z,58.70
2017-05-30T09:23:08.735Z,58.00
2017-05-30T09:25:37.091Z,58.00
2017-05-30T09:28:05.400Z,57.40
2017-05-30T09:30:33.708Z,56.10
2017-05-30T09:33:02.071Z,56.50
2017-05-30T09:35:30.008Z,59.50
2017-05-30T09:37:58.316Z,56.70
2017-05-30T09:40:26.294Z,56.30
2017-05-30T09:42:54.602Z,58.20
2017-05-30T09:45:23.646Z,57.50
2017-05-30T09:47:52.000Z,58.00
2017-05-30T09:50:19.955Z,56.30
2017-05-30T09:52:47.899Z,57.00
2017-05-30T09:55:16.293Z,55.60
2017-05-30T09:57:44.243Z,57.30
2017-05-30T10:00:12.209Z,55.50
2017-05-30T10:02:40.571Z,57.20
2017-05-30T10:05:08.875Z,54.30
2017-05-30T10:07:36.811Z,54.20
2017-05-30T10:10:05.167Z,55.20
2017-05-30T10:12:33.471Z,53.80
2017-05-30T10:15:01.829Z,56.00
2017-05-30T10:17:29.819Z,54.90
2017-05-30T10:19:58.129Z,54.60
2017-05-30T10:22:26.439Z,52.70
2017-05-30T10:24:54.786Z,53.20
2017-05-30T10:27:23.459Z,51.20
2017-05-30T10:29:51.762Z,50.90
2017-05-30T10:32:19.738Z,51.10
2017-05-30T10:34:47.675Z,52.00
2017-05-30T10:37:15.993Z,53.10
2017-05-30T10:39:44.035Z,53.90
2017-05-30T10:42:12.366Z,53.70
2017-05-30T10:44:40.307Z,51.40
2017-05-30T10:47:08.667Z,52.90
2017-05-30T10:49:36.971Z,53.00
2017-05-30T10:52:05.271Z,53.10
2017-05-30T10:54:33.624Z,54.20
2017-05-30T10:57:01.567Z,55.20
2017-05-30T10:59:29.880Z,56.00
2017-05-30T11:04:27.110Z,56.30
2017-05-30T11:06:55.410Z,53.60
2017-05-30T11:09:23.427Z,52.70
2017-05-30T11:11:51.733Z,52.90
2017-05-30T11:14:19.666Z,53.60
2017-05-30T11:16:48.039Z,55.20
2017-05-30T11:19:15.987Z,55.50
2017-05-30T11:21:43.931Z,57.10
2017-05-30T11:24:12.311Z,58.40
2017-05-30T11:26:40.623Z,59.00
2017-05-30T11:29:08.562Z,59.30
2017-05-30T11:31:36.947Z,59.80
2017-05-30T11:34:05.259Z,63.10
2017-05-30T11:36:33.199Z,59.60
2017-05-30T11:39:01.595Z,57.80
2017-05-30T11:41:29.915Z,57.40
2017-05-30T11:43:57.854Z,54.80
2017-05-30T11:48:55.110Z,65.00
2017-05-30T11:51:23.415Z,67.50
2017-05-30T11:53:51.406Z,68.20
2017-05-30T11:56:19.710Z,71.60
2017-05-30T11:58:47.671Z,72.30
2017-05-30T12:01:15.679Z,73.90
2017-05-30T12:03:44.023Z,73.40
2017-05-30T12:06:11.976Z,75.50
2017-05-30T12:08:40.360Z,74.40
2017-05-30T12:11:08.676Z,73.80
2017-05-30T12:13:36.991Z,74.50
2017-05-30T12:16:04.975Z,74.20
2017-05-30T12:21:02.587Z,72.60
2017-05-30T12:23:30.952Z,74.60
2017-05-30T12:25:59.268Z,76.70
2017-05-30T12:28:28.080Z,75.50
2017-05-30T12:30:56.464Z,76.20
2017-05-30T12:33:25.147Z,76.40
2017-05-30T12:35:53.455Z,77.90
2017-05-30T12:38:21.440Z,75.50
2017-05-30T12:40:55.367Z,75.40
2017-05-30T12:43:24.458Z,70.30
2017-05-30T12:45:51.995Z,71.70
2017-05-30T12:48:19.940Z,69.80
2017-05-30T12:50:48.303Z,70.30
2017-05-30T12:53:16.622Z,66.60
2017-05-30T12:55:44.580Z,67.20
2017-05-30T12:58:12.954Z,66.60
2017-05-30T13:00:41.281Z,65.80
2017-05-30T13:03:09.235Z,63.20
2017-05-30T13:05:37.588Z,64.00
2017-05-30T13:08:05.900Z,63.80
2017-05-30T13:10:33.835Z,65.30
2017-05-30T13:13:02.224Z,63.20
2017-05-30T13:15:31.275Z,64.60
2017-05-30T13:17:59.586Z,66.00
2017-05-30T13:22:57.218Z,63.00
2017-05-30T13:25:25.518Z,63.70
2017-05-30T13:27:53.867Z,61.70
2017-05-30T13:30:21.808Z,59.20
2017-05-30T13:32:50.106Z,61.20
2017-05-30T13:35:18.455Z,57.20
2017-05-30T13:37:46.791Z,59.00
2017-05-30T13:40:14.758Z,59.80
2017-05-30T13:42:43.151Z,62.40
2017-05-30T13:45:11.506Z,61.90
2017-05-30T13:47:39.448Z,61.10
2017-05-30T13:50:07.799Z,67.50
2017-05-30T13:52:36.118Z,61.40
2017-05-30T13:55:04.791Z,58.40
2017-05-30T13:57:33.163Z,62.90
2017-05-30T14:00:01.111Z,61.00
2017-05-30T14:02:29.048Z,58.60
2017-05-30T14:04:57.398Z,57.70
2017-05-30T14:07:25.330Z,58.50
2017-05-30T14:09:53.631Z,58.60
2017-05-30T14:12:21.979Z,58.80
2017-05-30T14:14:49.932Z,58.10
2017-05-30T14:17:18.256Z,56.90
2017-05-30T14:19:46.642Z,56.70
2017-05-30T14:22:14.971Z,57.30
2017-05-30T14:24:42.955Z,56.90
2017-05-30T14:27:11.356Z,55.60
2017-05-30T14:29:39.663Z,55.10
2017-05-30T14:32:07.595Z,55.10
2017-05-30T14:37:04.854Z,57.20
2017-05-30T14:39:32.809Z,55.10
2017-05-30T14:42:01.175Z,55.70
2017-05-30T14:44:29.133Z,56.00
2017-05-30T14:46:57.087Z,57.50
2017-05-30T14:49:25.438Z,56.50
2017-05-30T14:51:53.433Z,54.50
2017-05-30T14:54:21.779Z,56.60
2017-05-30T14:56:50.139Z,56.80
2017-05-30T14:59:18.160Z,55.70
2017-05-30T15:01:46.847Z,56.60
2017-05-30T15:04:14.851Z,56.10
2017-05-30T15:06:42.812Z,56.00
2017-05-30T15:11:40.547Z,56.40
2017-05-30T15:14:09.651Z,55.90
2017-05-30T15:16:38.697Z,56.10
2017-05-30T15:19:06.680Z,56.00
2017-05-30T15:21:34.990Z,56.60
2017-05-30T15:24:02.954Z,57.20
2017-05-30T15:26:30.968Z,56.40
2017-05-30T15:28:58.942Z,56.00
2017-05-30T15:31:27.284Z,55.50
2017-05-30T15:33:55.304Z,55.10
2017-05-30T15:36:23.613Z,56.40
2017-05-30T15:38:51.915Z,55.40
2017-05-30T15:41:20.346Z,55.40
2017-05-30T15:43:48.288Z,55.00
2017-05-30T15:46:16.625Z,54.50
2017-05-30T15:48:45.080Z,55.30
2017-05-30T15:51:13.039Z,56.80
2017-05-30T15:56:10.363Z,56.50
2017-05-30T15:58:38.291Z,56.10
2017-05-30T16:01:06.587Z,54.20
2017-05-30T16:03:34.572Z,53.90
2017-05-30T16:06:02.886Z,54.70
2017-05-30T16:08:30.832Z,54.70
2017-05-30T16:10:58.822Z,56.30
2017-05-30T16:13:27.118Z,56.70
2017-05-30T16:15:55.428Z,56.20
2017-05-30T16:18:23.790Z,56.80
2017-05-30T16:20:51.724Z,55.50
2017-05-30T16:23:20.023Z,55.70
2017-05-30T16:25:48.383Z,55.40
2017-05-30T16:28:16.701Z,56.00
2017-05-30T16:30:45.044Z,56.30
2017-05-30T16:33:13.037Z,57.40
2017-05-30T16:35:41.363Z,56.80
2017-05-30T16:38:10.039Z,57.10
2017-05-30T16:40:38.415Z,55.40
2017-05-30T16:43:06.351Z,56.90
2017-05-30T16:45:34.650Z,56.90
2017-05-30T16:48:03.769Z,56.40
2017-05-30T16:50:32.816Z,55.90
2017-05-30T16:53:01.503Z,55.70
2017-05-30T16:55:29.862Z,56.80
2017-05-30T16:57:58.217Z,55.80
2017-05-30T17:00:26.515Z,56.10
2017-05-30T17:05:24.138Z,56.60
2017-05-30T17:07:52.072Z,57.40
2017-05-30T17:10:20.414Z,57.90
2017-05-30T17:12:48.714Z,56.80
2017-05-30T17:15:17.040Z,57.70
2017-05-30T17:17:45.049Z,57.30
2017-05-30T17:20:13.383Z,57.10
2017-05-30T17:22:42.484Z,57.10
2017-05-30T17:25:10.486Z,56.90
2017-05-30T17:30:08.424Z,57.50
2017-05-30T17:32:36.792Z,57.30
2017-05-30T17:35:05.468Z,58.30
2017-05-30T17:37:33.779Z,58.50
2017-05-30T17:40:02.158Z,58.10
2017-05-30T17:47:28.052Z,58.80
2017-05-30T17:57:22.759Z,59.60
2017-05-30T17:59:51.058Z,60.70
2017-05-30T18:02:20.158Z,60.60
2017-05-30T18:04:48.099Z,59.90
2017-05-30T18:07:16.411Z,59.90
2017-05-30T18:09:44.794Z,60.20
2017-05-30T18:12:13.125Z,60.50
2017-05-30T18:14:41.438Z,59.70
2017-05-30T18:19:38.683Z,60.80
2017-05-30T18:22:07.359Z,60.70
2017-05-30T18:24:35.362Z,60.50
2017-05-30T18:27:04.039Z,60.40
2017-05-30T18:29:31.991Z,60.20
2017-05-30T18:31:59.988Z,61.10
2017-05-30T18:39:25.747Z,61.00
2017-05-30T18:41:53.679Z,61.70
2017-05-30T18:44:21.980Z,61.10
2017-05-30T18:46:50.074Z,60.80
2017-05-30T18:49:18.017Z,61.60
2017-05-30T18:51:46.344Z,60.60
2017-05-30T18:54:14.338Z,60.80
2017-05-30T18:56:42.277Z,61.40
2017-05-30T18:59:10.589Z,61.20
2017-05-30T19:01:40.374Z,61.20
2017-05-30T19:04:09.048Z,61.60
2017-05-30T19:06:37.366Z,62.40
2017-05-30T19:09:05.389Z,62.50
2017-05-30T19:11:33.340Z,61.90
2017-05-30T19:14:01.352Z,62.20
2017-05-30T19:16:30.181Z,62.00
2017-05-30T19:21:27.567Z,61.40
2017-05-30T19:23:55.895Z,62.50
2017-05-30T19:28:54.055Z,63.20
2017-05-30T19:31:22.647Z,62.60
2017-05-30T19:33:50.953Z,63.00
2017-05-30T19:36:19.176Z,62.50
2017-05-30T19:41:16.549Z,62.00
2017-05-30T19:43:44.856Z,62.90
2017-05-30T19:46:12.843Z,63.20
2017-05-30T19:53:39.906Z,63.00
2017-05-30T19:56:08.215Z,62.90
2017-05-30T19:58:36.237Z,62.20
2017-05-30T20:01:04.598Z,61.90
2017-05-30T20:06:01.464Z,62.20
2017-05-30T20:08:30.037Z,62.90
2017-05-30T20:10:58.395Z,62.90
2017-05-30T20:13:26.323Z,62.20
2017-05-30T20:20:52.098Z,63.70
2017-05-30T20:23:20.479Z,62.70
2017-05-30T20:25:49.150Z,61.00
2017-05-30T20:28:17.887Z,60.90
2017-05-30T20:30:47.025Z,61.30
2017-05-30T20:33:15.436Z,60.80
2017-05-30T20:35:43.771Z,60.30
2017-05-30T20:38:11.803Z,59.90
2017-05-30T20:40:40.111Z,60.20
2017-05-30T20:43:08.434Z,59.90
2017-05-30T20:45:36.404Z,60.50
2017-05-30T20:48:05.598Z,58.90
2017-05-30T20:50:33.931Z,60.20
2017-05-30T20:53:02.375Z,60.00
2017-05-30T20:55:30.684Z,61.10
2017-05-30T21:00:27.917Z,60.30
2017-05-30T21:02:56.218Z,60.60
2017-05-30T21:05:24.587Z,59.50
2017-05-30T21:07:52.644Z,59.80
2017-05-30T21:10:20.967Z,59.90
2017-05-30T21:12:48.934Z,59.50
2017-05-30T21:17:45.911Z,59.60
2017-05-30T21:20:13.884Z,59.80
2017-05-30T21:22:43.069Z,58.90
2017-05-30T21:25:11.005Z,59.30
2017-05-30T21:27:39.312Z,60.40
2017-05-30T21:30:07.708Z,60.60
2017-05-30T21:32:36.018Z,59.40
2017-05-30T21:35:04.391Z,60.50
2017-05-30T21:40:02.662Z,59.00
2017-05-30T21:42:30.967Z,61.40
2017-05-30T21:44:58.954Z,59.30
2017-05-30T21:49:56.908Z,60.70
2017-05-30T21:52:24.908Z,58.80
2017-05-30T21:54:53.232Z,59.00
2017-05-30T21:57:21.186Z,60.50
2017-05-30T21:59:49.586Z,58.90
2017-05-30T22:02:17.589Z,60.70
2017-05-30T22:09:44.134Z,59.60
2017-05-30T22:12:12.442Z,62.10
2017-05-30T22:14:41.607Z,60.70
2017-05-30T22:17:09.551Z,59.70
2017-05-30T22:19:37.903Z,59.30
2017-05-30T22:22:06.326Z,61.70
2017-05-30T22:27:04.014Z,61.10
2017-05-30T22:29:32.042Z,61.80
2017-05-30T22:32:00.371Z,61.50
2017-05-30T22:34:29.173Z,62.00
2017-05-30T22:36:57.542Z,62.50
2017-05-30T22:41:55.103Z,62.30
2017-05-30T22:44:23.483Z,63.70
2017-05-30T22:46:51.800Z,63.30
2017-05-30T22:49:20.126Z,64.30
2017-05-30T22:51:49.216Z,63.40
2017-05-30T22:54:17.623Z,63.30
2017-05-30T22:56:45.964Z,64.00
2017-05-30T22:59:14.328Z,64.00
2017-05-30T23:01:43.370Z,63.80
2017-05-30T23:04:11.675Z,63.90
2017-05-30T23:06:39.647Z,63.50
2017-05-30T23:09:07.951Z,63.40
2017-05-30T23:11:36.754Z,64.30
2017-05-30T23:14:07.131Z,65.00
2017-05-30T23:19:04.802Z,64.00
2017-05-30T23:24:08.192Z,64.60
2017-05-30T23:26:36.552Z,67.60
2017-05-30T23:29:04.514Z,65.30
2017-05-30T23:31:32.834Z,66.00
2017-05-30T23:34:00.843Z,65.90
2017-05-30T23:41:27.391Z,67.60
2017-05-30T23:43:55.334Z,68.10
2017-05-30T23:46:23.352Z,68.30
2017-05-30T23:48:51.705Z,67.70
2017-05-30T23:51:20.746Z,67.90
2017-05-30T23:53:49.048Z,69.20
2017-05-30T23:58:46.491Z,67.90
